Decoded Metar for GCFV (FUERTEVENTURA in SPAIN) (IATA:FUE) | Meteo·Mobile Aviation Weather
aviador You're here:

GCFV Decoded Metar

FUERTEVENTURA in SPAIN
Report Time2019-03-21 16:00:00
UTC Time2019-03-21 16:15:01
Flight Rules vfr VFR
Wind040° at 17 kt
W.Decomp.*RWY 01: 13.9 kt HW 9.8 kt RCW
W.Rank040° ranks 1
Current wind is above 040° avg. (13.4)
Visibility9999 m
Phenomena:N/A
Clouds:N/A
Expected CloudBase > 2,400 ft AGL from Temp-Dew spread
CeilingNone
Temp20°C (ISA +5)
Dew Point14°C (69% RH)
AAT15.2°C
QNH1015 hPa
Density Alt823 ft
Elevation75 ft
Report Wrong Elevation
Raw Report
GCFV 211600Z 04017KT CAVOK 20/14 Q1015=

Extra information for GCFV:More info

Metar Taf Metar & Taf Last 4 Metars F.Rules Stats Wind Profile Meteogram Temp Stats Airport Information Weather charts Add Link Nearby VenuesMetar ALERT Operation Metar Decoded Social comments